sensor_id;sensor_type;location;lat;lon;timestamp;P1;durP1;ratioP1;P2;durP2;ratioP2
29172;SDS011;16223;47.966;-1.616;2024-01-15T10:45:02;30.875;;;12.587499999999999;;
29172;SDS011;16223;47.966;-1.616;2024-01-15T10:45:46;16.3125;;;8.0625;;
29172;SDS011;16223;47.966;-1.616;2024-01-15T10:46:46;9.2875;;;6.25;;
29172;SDS011;16223;47.966;-1.616;2024-01-15T10:47:46;15.837499999999999;;;8.8;;
29172;SDS011;16223;47.966;-1.616;2024-01-15T10:48:46;6.3625;;;5.0125;;
29172;SDS011;16223;47.966;-1.616;2024-01-15T10:49:46;11.7;;;6.137499999999999;;
29172;SDS011;16223;47.966;-1.616;2024-01-15T10:50:46;11.15;;;5.75;;
29172;SDS011;16223;47.966;-1.616;2024-01-15T10:51:46;9.287500000000001;;;6.25;;
29172;SDS011;16223;47.966;-1.616;2024-01-15T10:52:46;11.75;;;8.6625;;
29172;SDS011;16223;47.966;-1.616;2024-01-15T10:53:46;12.55;;;6.85;;
29172;SDS011;16223;47.966;-1.616;2024-01-15T10:54:46;5.112500000000001;;;3.7625;;
29172;SDS011;16223;47.966;-1.616;2024-01-15T10:55:46;10.0;;;6.8125;;
29172;SDS011;16223;47.966;-1.616;2024-01-15T10:56:46;11.725;;;5.3375;;
29172;SDS011;16223;47.966;-1.616;2024-01-15T10:57:46;9.4875;;;7.3999999999999995;;
29172;SDS011;16223;47.966;-1.616;2024-01-15T10:58:46;4.0375;;;3.3375000000000004;;
29172;SDS011;16223;47.966;-1.616;2024-01-15T10:59:46;16.925;;;4.637499999999999;;
29172;SDS011;16223;47.966;-1.616;2024-01-15T11:00:46;14.325;;;8.2;;
29172;SDS011;16223;47.966;-1.616;2024-01-15T11:01:46;17.6375;;;5.625;;
29172;SDS011;16223;47.966;-1.616;2024-01-15T11:02:46;14.087499999999999;;;7.9375;;
29172;SDS011;16223;47.966;-1.616;2024-01-15T11:03:46;8.674999999999999;;;5.737499999999999;;
29172;SDS011;16223;47.966;-1.616;2024-01-15T11:04:46;9.175;;;3.5625;;
29172;SDS011;16223;47.966;-1.616;2024-01-15T11:05:46;8.537500000000001;;;5.525;;
29172;SDS011;16223;47.966;-1.616;2024-01-15T11:06:47;5.05;;;4.225;;
29172;SDS011;16223;47.966;-1.616;2024-01-15T11:07:46;7.4;;;3.8125;;
29172;SDS011;16223;47.966;-1.616;2024-01-15T11:08:46;1.5125;;;1.3250000000000002;;
29172;SDS011;16223;47.966;-1.616;2024-01-15T11:09:46;4.637499999999999;;;2.8375;;
29172;SDS011;16223;47.966;-1.616;2024-01-15T11:10:47;0.5625;;;0.5625;;
29172;SDS011;16223;47.966;-1.616;2024-01-15T11:11:46;4.6;;;1.7999999999999998;;
29172;SDS011;16223;47.966;-1.616;2024-01-15T11:12:47;7.5375000000000005;;;3.3875;;
29172;SDS011;16223;47.966;-1.616;2024-01-15T11:13:46;10.287500000000001;;;6.574999999999999;;
29172;SDS011;16223;47.966;-1.616;2024-01-15T11:14:46;10.7;;;6.65;;
29172;SDS011;16223;47.966;-1.616;2024-01-15T11:15:58;38.0125;;;5.125;;
29172;SDS011;16223;47.966;-1.616;2024-01-15T11:16:54;2.6125;;;1.8875000000000002;;
29172;SDS011;16223;47.966;-1.616;2024-01-15T11:17:58;15.1875;;;8.7;;
29172;SDS011;16223;47.966;-1.616;2024-01-15T11:19:01;9.6875;;;5.7;;
29172;SDS011;16223;47.966;-1.616;2024-01-15T11:19:46;6.137499999999999;;;5.3875;;
29172;SDS011;16223;47.966;-1.616;2024-01-15T11:21:02;4.125;;;3.7375000000000003;;
29172;SDS011;16223;47.966;-1.616;2024-01-15T11:21:46;4.925;;;2.9875;;
29172;SDS011;16223;47.966;-1.616;2024-01-15T11:22:47;6.2125;;;5.2625;;
29172;SDS011;16223;47.966;-1.616;2024-01-15T11:23:46;16.025;;;8.0125;;
29172;SDS011;16223;47.966;-1.616;2024-01-15T11:24:46;7.950000000000001;;;4.2;;
29172;SDS011;16223;47.966;-1.616;2024-01-15T11:25:46;9.5125;;;4.4625;;
29172;SDS011;16223;47.966;-1.616;2024-01-15T11:26:46;9.075;;;4.95;;
29172;SDS011;16223;47.966;-1.616;2024-01-15T11:27:46;12.95;;;6.6125;;
29172;SDS011;16223;47.966;-1.616;2024-01-15T11:28:47;8.425;;;4.225;;
29172;SDS011;16223;47.966;-1.616;2024-01-15T11:29:46;5.1625;;;4.762499999999999;;
29172;SDS011;16223;47.966;-1.616;2024-01-15T11:30:46;3.875;;;3.3625;;
29172;SDS011;16223;47.966;-1.616;2024-01-15T11:31:58;7.2125;;;2.7874999999999996;;
29172;SDS011;16223;47.966;-1.616;2024-01-15T11:32:46;12.7625;;;5.75;;
29172;SDS011;16223;47.966;-1.616;2024-01-15T11:33:47;3.0625;;;2.875;;
29172;SDS011;16223;47.966;-1.616;2024-01-15T11:34:50;4.4;;;2.8125;;
29172;SDS011;16223;47.966;-1.616;2024-01-15T11:35:48;7.3500000000000005;;;4.7375;;
29172;SDS011;16223;47.966;-1.616;2024-01-15T11:37:06;10.425;;;2.975;;
29172;SDS011;16223;47.966;-1.616;2024-01-15T11:37:56;3.6875;;;2.9125;;
29172;SDS011;16223;47.966;-1.616;2024-01-15T11:38:46;7.5;;;3.1125;;
29172;SDS011;16223;47.966;-1.616;2024-01-15T11:39:46;4.85;;;2.675;;
29172;SDS011;16223;47.966;-1.616;2024-01-15T11:40:46;3.825;;;2.425;;
29172;SDS011;16223;47.966;-1.616;2024-01-15T11:41:46;6.0375;;;3.875;;
29172;SDS011;16223;47.966;-1.616;2024-01-15T11:42:46;4.2250000000000005;;;1.9749999999999999;;
29172;SDS011;16223;47.966;-1.616;2024-01-15T11:43:46;2.3875;;;2.2375;;
29172;SDS011;16223;47.966;-1.616;2024-01-15T11:44:46;1.85;;;1.6375;;
29172;SDS011;16223;47.966;-1.616;2024-01-15T11:45:47;11.2;;;3.275;;
29172;SDS011;16223;47.966;-1.616;2024-01-15T11:46:49;0.4;;;0.38749999999999996;;
29172;SDS011;16223;47.966;-1.616;2024-01-15T11:48:03;6.0;;;4.2124999999999995;;
29172;SDS011;16223;47.966;-1.616;2024-01-15T11:48:46;6.025;;;3.025;;
29172;SDS011;16223;47.966;-1.616;2024-01-15T11:49:53;2.5;;;2.1;;
29172;SDS011;16223;47.966;-1.616;2024-01-15T11:50:46;12.0875;;;4.512499999999999;;
29172;SDS011;16223;47.966;-1.616;2024-01-15T11:51:46;3.2;;;2.5125;;
29172;SDS011;16223;47.966;-1.616;2024-01-15T11:52:47;2.45;;;1.5500000000000003;;
29172;SDS011;16223;47.966;-1.616;2024-01-15T11:53:47;1.8624999999999998;;;1.3875;;
29172;SDS011;16223;47.966;-1.616;2024-01-15T11:54:48;1.775;;;1.45;;
29172;SDS011;16223;47.966;-1.616;2024-01-15T11:55:46;7.275;;;3.1375;;
29172;SDS011;16223;47.966;-1.616;2024-01-15T11:56:46;1.55;;;1.4625;;
29172;SDS011;16223;47.966;-1.616;2024-01-15T11:57:46;2.2749999999999995;;;1.8375000000000001;;
29172;SDS011;16223;47.966;-1.616;2024-01-15T11:58:46;1.5749999999999997;;;1.4875;;
29172;SDS011;16223;47.966;-1.616;2024-01-15T11:59:46;6.525;;;3.525;;
29172;SDS011;16223;47.966;-1.616;2024-01-15T12:00:47;5.012499999999999;;;3.175;;
29172;SDS011;16223;47.966;-1.616;2024-01-15T12:01:46;2.95;;;2.5;;
29172;SDS011;16223;47.966;-1.616;2024-01-15T12:02:46;3.55;;;2.1;;
29172;SDS011;16223;47.966;-1.616;2024-01-15T12:03:46;6.5625;;;1.875;;
29172;SDS011;16223;47.966;-1.616;2024-01-15T12:04:46;3.9625;;;2.0125;;
29172;SDS011;16223;47.966;-1.616;2024-01-15T12:05:46;3.1624999999999996;;;2.4375;;
29172;SDS011;16223;47.966;-1.616;2024-01-15T12:06:46;2.05;;;1.875;;
29172;SDS011;16223;47.966;-1.616;2024-01-15T12:07:46;6.1625000000000005;;;2.975;;
29172;SDS011;16223;47.966;-1.616;2024-01-15T12:08:46;2.25;;;2.1125;;
29172;SDS011;16223;47.966;-1.616;2024-01-15T12:09:46;2.6500000000000004;;;1.8250000000000002;;
29172;SDS011;16223;47.966;-1.616;2024-01-15T12:10:46;9.4125;;;2.975;;
29172;SDS011;16223;47.966;-1.616;2024-01-15T12:11:47;2.4250000000000003;;;2.1875;;
29172;SDS011;16223;47.966;-1.616;2024-01-15T12:12:52;11.725;;;1.2125000000000001;;
29172;SDS011;16223;47.966;-1.616;2024-01-15T12:13:46;2.1875;;;0.9500000000000001;;
29172;SDS011;16223;47.966;-1.616;2024-01-15T12:14:46;1.8250000000000002;;;1.6625;;
29172;SDS011;16223;47.966;-1.616;2024-01-15T12:15:47;1.0;;;0.9750000000000001;;
29172;SDS011;16223;47.966;-1.616;2024-01-15T12:16:46;1.5;;;1.4125;;
29172;SDS011;16223;47.966;-1.616;2024-01-15T12:17:46;6.562500000000001;;;1.6124999999999998;;
29172;SDS011;16223;47.966;-1.616;2024-01-15T12:18:46;1.2125000000000001;;;1.175;;
29172;SDS011;16223;47.966;-1.616;2024-01-15T12:19:46;4.4875;;;2.15;;
29172;SDS011;16223;47.966;-1.616;2024-01-15T12:20:46;3.925;;;1.5875000000000001;;
29172;SDS011;16223;47.966;-1.616;2024-01-15T12:21:46;1.4875;;;0.9125000000000001;;
29172;SDS011;16223;47.966;-1.616;2024-01-15T12:22:46;2.4125;;;0.95;;
29172;SDS011;16223;47.966;-1.616;2024-01-15T12:23:46;4.2125;;;1.85;;
29172;SDS011;16223;47.966;-1.616;2024-01-15T12:24:46;2.525;;;1.3375000000000001;;
29172;SDS011;16223;47.966;-1.616;2024-01-15T12:25:46;1.4874999999999998;;;1.1625;;
29172;SDS011;16223;47.966;-1.616;2024-01-15T12:26:46;3.1375;;;1.3250000000000002;;
29172;SDS011;16223;47.966;-1.616;2024-01-15T12:27:46;7.6375;;;1.275;;
29172;SDS011;16223;47.966;-1.616;2024-01-15T12:28:46;1.55;;;1.0875;;
29172;SDS011;16223;47.966;-1.616;2024-01-15T12:29:46;1.75;;;1.475;;
29172;SDS011;16223;47.966;-1.616;2024-01-15T12:30:46;1.35;;;0.9249999999999999;;
29172;SDS011;16223;47.966;-1.616;2024-01-15T12:31:46;4.1625000000000005;;;1.4874999999999998;;
29172;SDS011;16223;47.966;-1.616;2024-01-15T12:32:46;1.25;;;1.075;;
29172;SDS011;16223;47.966;-1.616;2024-01-15T12:33:46;3.4625000000000004;;;2.6500000000000004;;
29172;SDS011;16223;47.966;-1.616;2024-01-15T12:34:46;0.725;;;0.725;;
29172;SDS011;16223;47.966;-1.616;2024-01-15T12:35:46;1.525;;;1.125;;
29172;SDS011;16223;47.966;-1.616;2024-01-15T12:36:46;3.3249999999999997;;;1.575;;
29172;SDS011;16223;47.966;-1.616;2024-01-15T12:37:47;2.0;;;1.4;;
29172;SDS011;16223;47.966;-1.616;2024-01-15T12:38:46;4.449999999999999;;;2.2125;;
29172;SDS011;16223;47.966;-1.616;2024-01-15T12:39:46;0.95;;;0.9375;;
29172;SDS011;16223;47.966;-1.616;2024-01-15T12:40:46;1.7125;;;1.5875;;
29172;SDS011;16223;47.966;-1.616;2024-01-15T12:41:46;3.35;;;1.9249999999999998;;
29172;SDS011;16223;47.966;-1.616;2024-01-15T12:42:46;5.9;;;3.175;;
29172;SDS011;16223;47.966;-1.616;2024-01-15T12:43:46;1.3875000000000002;;;1.3375;;
29172;SDS011;16223;47.966;-1.616;2024-01-15T12:44:46;2.3;;;1.3875;;
29172;SDS011;16223;47.966;-1.616;2024-01-15T12:45:46;21.325;;;2.8875;;
29172;SDS011;16223;47.966;-1.616;2024-01-15T12:46:46;1.4375;;;1.075;;
29172;SDS011;16223;47.966;-1.616;2024-01-15T12:47:46;17.725;;;1.55;;
29172;SDS011;16223;47.966;-1.616;2024-01-15T12:48:46;0.875;;;0.875;;
29172;SDS011;16223;47.966;-1.616;2024-01-15T12:49:46;2.0875;;;1.475;;
29172;SDS011;16223;47.966;-1.616;2024-01-15T12:50:46;3.1375;;;1.375;;
29172;SDS011;16223;47.966;-1.616;2024-01-15T12:51:51;0.42500000000000004;;;0.375;;
29172;SDS011;16223;47.966;-1.616;2024-01-15T12:52:46;6.3999999999999995;;;2.9000000000000004;;
29172;SDS011;16223;47.966;-1.616;2024-01-15T12:53:46;1.2125000000000001;;;1.15;;
29172;SDS011;16223;47.966;-1.616;2024-01-15T12:54:46;9.1125;;;3.175;;
29172;SDS011;16223;47.966;-1.616;2024-01-15T12:55:46;3.675;;;1.5875;;
29172;SDS011;16223;47.966;-1.616;2024-01-15T12:56:46;2.7;;;1.5374999999999999;;
29172;SDS011;16223;47.966;-1.616;2024-01-15T12:57:46;0.4;;;0.4;;
29172;SDS011;16223;47.966;-1.616;2024-01-15T12:58:46;4.55;;;1.5375;;
29172;SDS011;16223;47.966;-1.616;2024-01-15T12:59:46;3.125;;;1.2125;;
29172;SDS011;16223;47.966;-1.616;2024-01-15T13:00:46;2.3875;;;1.7125000000000001;;
29172;SDS011;16223;47.966;-1.616;2024-01-15T13:01:46;0.575;;;0.575;;
29172;SDS011;16223;47.966;-1.616;2024-01-15T13:02:46;0.8875;;;0.7125;;
29172;SDS011;16223;47.966;-1.616;2024-01-15T13:03:46;1.425;;;1.3625;;
29172;SDS011;16223;47.966;-1.616;2024-01-15T13:04:46;0.7499999999999999;;;0.7374999999999999;;
29172;SDS011;16223;47.966;-1.616;2024-01-15T13:05:46;2.525;;;2.25;;
29172;SDS011;16223;47.966;-1.616;2024-01-15T13:06:46;1.6624999999999999;;;1.4625000000000001;;
29172;SDS011;16223;47.966;-1.616;2024-01-15T13:07:46;0.8125;;;0.8125;;
29172;SDS011;16223;47.966;-1.616;2024-01-15T13:08:46;2.975;;;2.7249999999999996;;
29172;SDS011;16223;47.966;-1.616;2024-01-15T13:09:46;16.1375;;;3.425;;
29172;SDS011;16223;47.966;-1.616;2024-01-15T13:10:46;3.375;;;2.2125;;
29172;SDS011;16223;47.966;-1.616;2024-01-15T13:11:46;6.3625;;;1.35;;
29172;SDS011;16223;47.966;-1.616;2024-01-15T13:12:46;2.075;;;0.8999999999999999;;
29172;SDS011;16223;47.966;-1.616;2024-01-15T13:13:46;9.987499999999999;;;1.175;;
29172;SDS011;16223;47.966;-1.616;2024-01-15T13:14:46;12.875;;;3.9125;;
29172;SDS011;16223;47.966;-1.616;2024-01-15T13:15:46;0.9;;;0.675;;
29172;SDS011;16223;47.966;-1.616;2024-01-15T13:16:46;0.3375;;;0.3375;;
29172;SDS011;16223;47.966;-1.616;2024-01-15T13:17:46;0.95;;;0.9125;;
29172;SDS011;16223;47.966;-1.616;2024-01-15T13:18:46;1.1749999999999998;;;1.15;;
29172;SDS011;16223;47.966;-1.616;2024-01-15T13:19:46;2.1375;;;1.575;;
29172;SDS011;16223;47.966;-1.616;2024-01-15T13:20:46;2.6500000000000004;;;1.7374999999999998;;
29172;SDS011;16223;47.966;-1.616;2024-01-15T13:21:46;3.2125;;;1.8499999999999999;;
29172;SDS011;16223;47.966;-1.616;2024-01-15T13:22:46;2.4625;;;1.15;;
29172;SDS011;16223;47.966;-1.616;2024-01-15T13:23:46;1.8624999999999998;;;1.5875;;
29172;SDS011;16223;47.966;-1.616;2024-01-15T13:24:46;12.2375;;;3.55;;
29172;SDS011;16223;47.966;-1.616;2024-01-15T13:25:46;1.2750000000000001;;;1.2125000000000001;;
29172;SDS011;16223;47.966;-1.616;2024-01-15T13:26:46;0.95;;;0.95;;
29172;SDS011;16223;47.966;-1.616;2024-01-15T13:27:46;1.8250000000000002;;;1.725;;
29172;SDS011;16223;47.966;-1.616;2024-01-15T13:28:46;2.575;;;1.6124999999999998;;
29172;SDS011;16223;47.966;-1.616;2024-01-15T13:29:46;4.3;;;2.0250000000000004;;
29172;SDS011;16223;47.966;-1.616;2024-01-15T13:30:46;2.05;;;1.75;;
29172;SDS011;16223;47.966;-1.616;2024-01-15T13:31:46;3.25;;;1.6;;
29172;SDS011;16223;47.966;-1.616;2024-01-15T13:32:46;2.0;;;1.7875;;
29172;SDS011;16223;47.966;-1.616;2024-01-15T13:33:46;3.0999999999999996;;;2.6999999999999997;;
29172;SDS011;16223;47.966;-1.616;2024-01-15T13:34:46;2.6;;;1.8499999999999999;;
29172;SDS011;16223;47.966;-1.616;2024-01-15T13:35:46;2.5;;;2.2624999999999997;;
29172;SDS011;16223;47.966;-1.616;2024-01-15T13:36:46;1.4;;;1.3375;;
29172;SDS011;16223;47.966;-1.616;2024-01-15T13:37:46;6.025;;;3.8125;;
29172;SDS011;16223;47.966;-1.616;2024-01-15T13:38:46;9.0875;;;1.9000000000000004;;
29172;SDS011;16223;47.966;-1.616;2024-01-15T13:39:46;6.7875;;;1.9875000000000003;;
29172;SDS011;16223;47.966;-1.616;2024-01-15T13:40:46;1.35;;;1.2999999999999998;;
29172;SDS011;16223;47.966;-1.616;2024-01-15T13:41:46;4.5;;;1.7375;;
29172;SDS011;16223;47.966;-1.616;2024-01-15T13:42:46;1.7875;;;1.725;;
29172;SDS011;16223;47.966;-1.616;2024-01-15T13:43:47;7.175;;;1.8;;
29172;SDS011;16223;47.966;-1.616;2024-01-15T13:44:46;1.7875;;;1.1875;;
29172;SDS011;16223;47.966;-1.616;2024-01-15T13:45:47;1.5750000000000002;;;1.0750000000000002;;
29172;SDS011;16223;47.966;-1.616;2024-01-15T13:46:46;1.7;;;1.6125;;
29172;SDS011;16223;47.966;-1.616;2024-01-15T13:47:46;0.525;;;0.525;;
29172;SDS011;16223;47.966;-1.616;2024-01-15T13:48:46;0.7875000000000001;;;0.5249999999999999;;
29172;SDS011;16223;47.966;-1.616;2024-01-15T13:49:46;1.1625;;;1.05;;
29172;SDS011;16223;47.966;-1.616;2024-01-15T13:50:46;14.287500000000001;;;1.7125000000000001;;
29172;SDS011;16223;47.966;-1.616;2024-01-15T13:51:46;1.8;;;1.25;;
29172;SDS011;16223;47.966;-1.616;2024-01-15T13:52:46;2.8625;;;1.4625;;
29172;SDS011;16223;47.966;-1.616;2024-01-15T13:53:46;4.1375;;;1.9124999999999999;;
29172;SDS011;16223;47.966;-1.616;2024-01-15T13:54:46;2.45;;;1.9249999999999998;;
29172;SDS011;16223;47.966;-1.616;2024-01-15T13:55:46;9.15;;;1.375;;
29172;SDS011;16223;47.966;-1.616;2024-01-15T13:56:46;1.65;;;1.5375;;
29172;SDS011;16223;47.966;-1.616;2024-01-15T13:57:46;2.075;;;1.1375;;
29172;SDS011;16223;47.966;-1.616;2024-01-15T13:58:46;2.65;;;1.675;;
29172;SDS011;16223;47.966;-1.616;2024-01-15T13:59:46;0.35;;;0.35;;
29172;SDS011;16223;47.966;-1.616;2024-01-15T14:00:46;3.5500000000000003;;;1.7625;;
29172;SDS011;16223;47.966;-1.616;2024-01-15T14:01:46;3.9250000000000003;;;1.4625;;
29172;SDS011;16223;47.966;-1.616;2024-01-15T14:02:46;1.5125;;;1.0875;;
29172;SDS011;16223;47.966;-1.616;2024-01-15T14:03:46;3.6624999999999996;;;1.6625;;
29172;SDS011;16223;47.966;-1.616;2024-01-15T14:04:46;0.4624999999999999;;;0.4624999999999999;;
29172;SDS011;16223;47.966;-1.616;2024-01-15T14:05:46;1.4125;;;1.2625000000000002;;
29172;SDS011;16223;47.966;-1.616;2024-01-15T14:06:46;3.85;;;1.7375;;
29172;SDS011;16223;47.966;-1.616;2024-01-15T14:07:46;3.175;;;1.6624999999999999;;
29172;SDS011;16223;47.966;-1.616;2024-01-15T14:08:46;4.975;;;2.7125;;
29172;SDS011;16223;47.966;-1.616;2024-01-15T14:09:46;8.8375;;;1.2375;;
29172;SDS011;16223;47.966;-1.616;2024-01-15T14:10:46;2.8125;;;1.7000000000000002;;
29172;SDS011;16223;47.966;-1.616;2024-01-15T14:11:46;4.75;;;1.7000000000000002;;
29172;SDS011;16223;47.966;-1.616;2024-01-15T14:12:46;0.21250000000000002;;;0.21250000000000002;;
29172;SDS011;16223;47.966;-1.616;2024-01-15T14:13:46;0.55;;;0.55;;
29172;SDS011;16223;47.966;-1.616;2024-01-15T14:14:46;3.875;;;2.175;;
29172;SDS011;16223;47.966;-1.616;2024-01-15T14:15:46;2.1375;;;1.05;;
29172;SDS011;16223;47.966;-1.616;2024-01-15T14:16:46;2.3375000000000004;;;1.9625;;
29172;SDS011;16223;47.966;-1.616;2024-01-15T14:17:46;1.6;;;1.5125000000000002;;
29172;SDS011;16223;47.966;-1.616;2024-01-15T14:18:46;1.5625;;;1.3875000000000002;;
29172;SDS011;16223;47.966;-1.616;2024-01-15T14:19:46;2.95;;;2.1125;;
29172;SDS011;16223;47.966;-1.616;2024-01-15T14:20:46;4.1499999999999995;;;3.1125;;
29172;SDS011;16223;47.966;-1.616;2024-01-15T14:21:46;1.35;;;0.975;;
29172;SDS011;16223;47.966;-1.616;2024-01-15T14:22:47;8.7125;;;1.3875;;
29172;SDS011;16223;47.966;-1.616;2024-01-15T14:23:46;2.0875000000000004;;;1.0374999999999999;;
29172;SDS011;16223;47.966;-1.616;2024-01-15T14:24:46;13.975000000000001;;;1.7;;
29172;SDS011;16223;47.966;-1.616;2024-01-15T14:25:46;16.975;;;2.075;;
29172;SDS011;16223;47.966;-1.616;2024-01-15T14:26:46;7.5375;;;2.4125;;
29172;SDS011;16223;47.966;-1.616;2024-01-15T14:27:46;2.925;;;1.1875;;
29172;SDS011;16223;47.966;-1.616;2024-01-15T14:28:46;8.1875;;;3.4625;;
29172;SDS011;16223;47.966;-1.616;2024-01-15T14:29:46;5.0625;;;1.4625;;
29172;SDS011;16223;47.966;-1.616;2024-01-15T14:30:46;2.65;;;2.1999999999999997;;
29172;SDS011;16223;47.966;-1.616;2024-01-15T14:31:46;0.6875;;;0.6875;;
29172;SDS011;16223;47.966;-1.616;2024-01-15T14:32:46;6.025;;;1.9875;;
29172;SDS011;16223;47.966;-1.616;2024-01-15T14:33:46;2.4000000000000004;;;0.975;;
29172;SDS011;16223;47.966;-1.616;2024-01-15T14:34:46;6.5875;;;3.7;;
29172;SDS011;16223;47.966;-1.616;2024-01-15T14:35:46;1.725;;;1.5250000000000001;;
29172;SDS011;16223;47.966;-1.616;2024-01-15T14:36:46;5.0;;;2.675;;
29172;SDS011;16223;47.966;-1.616;2024-01-15T14:37:46;1.7875;;;1.4249999999999998;;
29172;SDS011;16223;47.966;-1.616;2024-01-15T14:38:46;5.2375;;;2.4375;;
29172;SDS011;16223;47.966;-1.616;2024-01-15T14:39:46;4.2;;;1.9625;;
29172;SDS011;16223;47.966;-1.616;2024-01-15T14:40:46;2.8375;;;2.575;;
29172;SDS011;16223;47.966;-1.616;2024-01-15T14:41:46;2.6;;;1.7375;;
29172;SDS011;16223;47.966;-1.616;2024-01-15T14:42:46;4.6375;;;2.9375;;
29172;SDS011;16223;47.966;-1.616;2024-01-15T14:43:46;2.2;;;1.8375;;
29172;SDS011;16223;47.966;-1.616;2024-01-15T14:44:46;10.712499999999999;;;3.1125;;
29172;SDS011;16223;47.966;-1.616;2024-01-15T14:45:46;11.825;;;3.3499999999999996;;
29172;SDS011;16223;47.966;-1.616;2024-01-15T14:46:46;2.9625000000000004;;;2.5625;;
29172;SDS011;16223;47.966;-1.616;2024-01-15T14:47:46;8.625;;;2.5875000000000004;;
29172;SDS011;16223;47.966;-1.616;2024-01-15T14:48:46;1.6875;;;0.925;;
29172;SDS011;16223;47.966;-1.616;2024-01-15T14:49:46;5.2749999999999995;;;2.45;;
29172;SDS011;16223;47.966;-1.616;2024-01-15T14:50:46;2.65;;;2.2375;;
29172;SDS011;16223;47.966;-1.616;2024-01-15T14:51:46;3.5500000000000003;;;1.4375;;
29172;SDS011;16223;47.966;-1.616;2024-01-15T14:52:46;8.662500000000001;;;2.625;;
29172;SDS011;16223;47.966;-1.616;2024-01-15T14:53:46;4.05;;;2.2874999999999996;;
29172;SDS011;16223;47.966;-1.616;2024-01-15T14:54:46;10.05;;;2.5;;
29172;SDS011;16223;47.966;-1.616;2024-01-15T14:55:46;6.225;;;3.15;;
29172;SDS011;16223;47.966;-1.616;2024-01-15T14:56:46;12.3;;;3.7125000000000004;;
29172;SDS011;16223;47.966;-1.616;2024-01-15T14:57:46;13.225;;;8.0125;;
29172;SDS011;16223;47.966;-1.616;2024-01-15T14:58:46;7.35;;;3.425;;
29172;SDS011;16223;47.966;-1.616;2024-01-15T14:59:46;9.5625;;;4.550000000000001;;
29172;SDS011;16223;47.966;-1.616;2024-01-15T15:00:46;6.9625;;;4.012499999999999;;
29172;SDS011;16223;47.966;-1.616;2024-01-15T15:01:46;10.412500000000001;;;2.475;;
29172;SDS011;16223;47.966;-1.616;2024-01-15T15:02:46;2.7625;;;1.8625000000000003;;
29172;SDS011;16223;47.966;-1.616;2024-01-15T15:03:46;21.1125;;;2.8;;
29172;SDS011;16223;47.966;-1.616;2024-01-15T15:04:46;5.9625;;;3.9;;
29172;SDS011;16223;47.966;-1.616;2024-01-15T15:05:46;5.9375;;;2.4375;;
29172;SDS011;16223;47.966;-1.616;2024-01-15T15:06:46;5.6625;;;2.525;;
29172;SDS011;16223;47.966;-1.616;2024-01-15T15:07:46;4.8125;;;2.8375;;
29172;SDS011;16223;47.966;-1.616;2024-01-15T15:08:46;9.3625;;;3.4625;;
29172;SDS011;16223;47.966;-1.616;2024-01-15T15:09:46;5.175;;;3.1125;;
29172;SDS011;16223;47.966;-1.616;2024-01-15T15:10:46;5.6;;;3.375;;
29172;SDS011;16223;47.966;-1.616;2024-01-15T15:11:46;7.3999999999999995;;;2.825;;
29172;SDS011;16223;47.966;-1.616;2024-01-15T15:12:46;5.25;;;3.1999999999999997;;
29172;SDS011;16223;47.966;-1.616;2024-01-15T15:13:46;2.1125;;;1.425;;
29172;SDS011;16223;47.966;-1.616;2024-01-15T15:14:46;3.675;;;3.1375;;
29172;SDS011;16223;47.966;-1.616;2024-01-15T15:15:46;2.2375;;;1.0625;;
29172;SDS011;16223;47.966;-1.616;2024-01-15T15:16:46;2.8875;;;2.65;;
29172;SDS011;16223;47.966;-1.616;2024-01-15T15:17:46;4.3625;;;1.9749999999999999;;
29172;SDS011;16223;47.966;-1.616;2024-01-15T15:18:46;2.6375;;;1.2874999999999999;;
29172;SDS011;16223;47.966;-1.616;2024-01-15T15:19:46;2.4000000000000004;;;2.2375;;
29172;SDS011;16223;47.966;-1.616;2024-01-15T15:20:46;6.3999999999999995;;;4.2;;
29172;SDS011;16223;47.966;-1.616;2024-01-15T15:21:46;6.775;;;2.35;;
29172;SDS011;16223;47.966;-1.616;2024-01-15T15:22:46;6.4125;;;4.637499999999999;;
29172;SDS011;16223;47.966;-1.616;2024-01-15T15:23:46;1.8375;;;1.7750000000000001;;
29172;SDS011;16223;47.966;-1.616;2024-01-15T15:24:46;0.8999999999999999;;;0.775;;
29172;SDS011;16223;47.966;-1.616;2024-01-15T15:25:46;10.950000000000001;;;6.699999999999999;;
29172;SDS011;16223;47.966;-1.616;2024-01-15T15:26:46;5.55;;;2.4875;;
29172;SDS011;16223;47.966;-1.616;2024-01-15T15:27:46;0.8375;;;0.8250000000000001;;
29172;SDS011;16223;47.966;-1.616;2024-01-15T15:28:46;4.0375;;;1.625;;
29172;SDS011;16223;47.966;-1.616;2024-01-15T15:29:46;4.8125;;;3.1625;;
29172;SDS011;16223;47.966;-1.616;2024-01-15T15:30:46;2.0375;;;1.125;;
29172;SDS011;16223;47.966;-1.616;2024-01-15T15:31:46;1.95;;;1.4875;;
29172;SDS011;16223;47.966;-1.616;2024-01-15T15:32:46;6.6000000000000005;;;3.0;;
29172;SDS011;16223;47.966;-1.616;2024-01-15T15:33:46;7.6625;;;4.525;;
29172;SDS011;16223;47.966;-1.616;2024-01-15T15:34:46;11.8375;;;3.6125;;
29172;SDS011;16223;47.966;-1.616;2024-01-15T15:35:46;4.825;;;3.3625;;
29172;SDS011;16223;47.966;-1.616;2024-01-15T15:36:46;3.5375;;;2.5124999999999997;;
29172;SDS011;16223;47.966;-1.616;2024-01-15T15:37:46;2.025;;;1.775;;
29172;SDS011;16223;47.966;-1.616;2024-01-15T15:38:46;2.2125000000000004;;;2.025;;
29172;SDS011;16223;47.966;-1.616;2024-01-15T15:39:46;1.3875;;;1.2;;
29172;SDS011;16223;47.966;-1.616;2024-01-15T15:40:46;3.7749999999999995;;;3.4375;;
29172;SDS011;16223;47.966;-1.616;2024-01-15T15:41:46;3.2874999999999996;;;2.9625000000000004;;
29172;SDS011;16223;47.966;-1.616;2024-01-15T15:42:46;4.8;;;1.4;;
29172;SDS011;16223;47.966;-1.616;2024-01-15T15:43:46;3.7375;;;2.05;;
29172;SDS011;16223;47.966;-1.616;2024-01-15T15:44:57;2.2375;;;2.075;;
29172;SDS011;16223;47.966;-1.616;2024-01-15T15:45:46;3.4749999999999996;;;1.2874999999999999;;
29172;SDS011;16223;47.966;-1.616;2024-01-15T15:46:46;5.5;;;1.525;;
29172;SDS011;16223;47.966;-1.616;2024-01-15T15:47:46;2.2875;;;1.425;;
29172;SDS011;16223;47.966;-1.616;2024-01-15T15:48:57;8.3875;;;3.6375;;
29172;SDS011;16223;47.966;-1.616;2024-01-15T15:49:46;1.5125;;;1.2625000000000002;;
29172;SDS011;16223;47.966;-1.616;2024-01-15T15:50:46;1.1375;;;1.075;;
29172;SDS011;16223;47.966;-1.616;2024-01-15T15:51:46;3.6875;;;3.4;;
29172;SDS011;16223;47.966;-1.616;2024-01-15T15:53:05;1.925;;;1.7750000000000001;;
29172;SDS011;16223;47.966;-1.616;2024-01-15T15:53:46;3.325;;;1.8250000000000002;;
29172;SDS011;16223;47.966;-1.616;2024-01-15T15:54:46;3.45;;;1.4874999999999998;;
29172;SDS011;16223;47.966;-1.616;2024-01-15T15:55:46;2.25;;;1.7875;;
29172;SDS011;16223;47.966;-1.616;2024-01-15T15:56:46;2.2;;;1.3375;;
29172;SDS011;16223;47.966;-1.616;2024-01-15T15:57:47;0.825;;;0.825;;
29172;SDS011;16223;47.966;-1.616;2024-01-15T15:58:46;1.225;;;1.075;;
29172;SDS011;16223;47.966;-1.616;2024-01-15T15:59:46;4.9875;;;1.5;;